createdAt,value
2018-11-07T00:00:15.389Z,9.79
2018-11-07T00:02:42.926Z,9.84
2018-11-07T00:05:10.360Z,9.83
2018-11-07T00:07:37.791Z,9.86
2018-11-07T00:10:05.312Z,9.86
2018-11-07T00:12:32.717Z,9.82
2018-11-07T00:15:00.156Z,9.78
2018-11-07T00:17:28.271Z,9.70
2018-11-07T00:19:55.688Z,9.77
2018-11-07T00:22:23.180Z,9.82
2018-11-07T00:24:50.633Z,9.78
2018-11-07T00:27:18.069Z,9.75
2018-11-07T00:29:45.509Z,9.77
2018-11-07T00:32:12.946Z,9.75
2018-11-07T00:34:40.366Z,9.75
2018-11-07T00:37:07.825Z,9.78
2018-11-07T00:39:35.287Z,9.71
2018-11-07T00:42:02.732Z,9.69
2018-11-07T00:44:30.196Z,9.69
2018-11-07T00:46:57.752Z,9.68
2018-11-07T00:49:25.252Z,9.57
2018-11-07T00:51:52.689Z,9.53
2018-11-07T00:54:20.126Z,9.57
2018-11-07T00:56:47.550Z,9.53
2018-11-07T00:59:15.004Z,9.36
2018-11-07T01:01:42.446Z,9.12
2018-11-07T01:04:09.941Z,9.07
2018-11-07T01:06:37.373Z,9.04
2018-11-07T01:09:04.905Z,9.12
2018-11-07T01:11:32.314Z,9.22
2018-11-07T01:13:59.785Z,9.21
2018-11-07T01:16:27.289Z,9.16
2018-11-07T01:18:54.663Z,9.21
2018-11-07T01:21:22.066Z,9.26
2018-11-07T01:23:49.504Z,9.19
2018-11-07T01:26:16.907Z,9.17
2018-11-07T01:28:44.361Z,9.20
2018-11-07T01:31:11.818Z,9.22
2018-11-07T01:33:39.278Z,9.25
2018-11-07T01:36:06.795Z,9.30
2018-11-07T01:38:34.189Z,9.28
2018-11-07T01:41:01.700Z,9.21
2018-11-07T01:43:29.110Z,9.21
2018-11-07T01:45:56.560Z,9.20
2018-11-07T01:48:24.045Z,9.17
2018-11-07T01:50:51.499Z,9.16
2018-11-07T01:53:18.923Z,8.95
2018-11-07T01:55:46.323Z,8.91
2018-11-07T01:58:13.761Z,8.96
2018-11-07T02:00:41.256Z,9.06
2018-11-07T02:03:08.722Z,9.01
2018-11-07T02:05:36.161Z,9.01
2018-11-07T02:08:03.654Z,9.01
2018-11-07T02:10:31.060Z,9.08
2018-11-07T02:12:58.589Z,9.12
2018-11-07T02:15:26.000Z,9.11
2018-11-07T02:17:53.399Z,8.92
2018-11-07T02:20:20.837Z,9.01
2018-11-07T02:22:48.232Z,9.08
2018-11-07T02:25:15.854Z,9.00
2018-11-07T02:27:43.398Z,8.88
2018-11-07T02:30:10.866Z,8.76
2018-11-07T02:32:38.379Z,8.79
2018-11-07T02:35:05.789Z,8.88
2018-11-07T02:37:33.218Z,8.88
2018-11-07T02:40:01.254Z,8.87
2018-11-07T02:42:28.683Z,8.88
2018-11-07T02:44:56.135Z,8.76
2018-11-07T02:47:23.538Z,8.68
2018-11-07T02:49:50.966Z,8.65
2018-11-07T02:52:18.474Z,8.65
2018-11-07T02:54:46.066Z,8.54
2018-11-07T02:57:13.464Z,8.57
2018-11-07T02:59:40.943Z,8.65
2018-11-07T03:02:08.355Z,8.71
2018-11-07T03:04:35.816Z,8.76
2018-11-07T03:07:03.254Z,8.71
2018-11-07T03:09:30.694Z,8.72
2018-11-07T03:11:58.262Z,8.82
2018-11-07T03:14:25.746Z,9.01
2018-11-07T03:16:53.292Z,9.10
2018-11-07T03:19:20.701Z,9.14
2018-11-07T03:21:48.184Z,9.22
2018-11-07T03:24:15.575Z,9.23
2018-11-07T03:26:43.294Z,9.24
2018-11-07T03:29:10.700Z,9.29
2018-11-07T03:31:38.176Z,9.37
2018-11-07T03:34:05.676Z,9.40
2018-11-07T03:36:33.198Z,9.45
2018-11-07T03:39:00.685Z,9.43
2018-11-07T03:41:28.124Z,9.42
2018-11-07T03:43:55.618Z,9.40
2018-11-07T03:46:23.050Z,9.41
2018-11-07T03:48:50.552Z,9.41
2018-11-07T03:51:18.786Z,9.42
2018-11-07T03:53:46.191Z,9.45
2018-11-07T03:56:13.706Z,9.50
2018-11-07T03:58:41.104Z,9.54
2018-11-07T04:01:08.613Z,9.50
2018-11-07T04:03:36.031Z,9.39
2018-11-07T04:06:03.529Z,9.15
2018-11-07T04:08:30.936Z,9.06
2018-11-07T04:10:58.362Z,9.02
2018-11-07T04:13:25.802Z,9.00
2018-11-07T04:15:53.243Z,9.05
2018-11-07T04:18:20.694Z,9.02
2018-11-07T04:20:48.130Z,9.06
2018-11-07T04:23:15.654Z,9.08
2018-11-07T04:25:43.146Z,9.11
2018-11-07T04:28:10.567Z,9.23
2018-11-07T04:30:38.009Z,9.25
2018-11-07T04:33:05.425Z,9.26
2018-11-07T04:35:32.939Z,9.30
2018-11-07T04:38:00.344Z,9.27
2018-11-07T04:40:28.118Z,9.29
2018-11-07T04:42:55.530Z,9.27
2018-11-07T04:45:23.044Z,9.29
2018-11-07T04:47:50.492Z,9.30
2018-11-07T04:50:18.067Z,9.35
2018-11-07T04:52:45.496Z,9.35
2018-11-07T04:55:12.924Z,9.30
2018-11-07T04:57:40.392Z,9.38
2018-11-07T05:00:07.878Z,9.42
2018-11-07T05:02:35.235Z,9.42
2018-11-07T05:05:02.699Z,9.45
2018-11-07T05:07:30.099Z,9.49
2018-11-07T05:09:57.528Z,9.52
2018-11-07T05:12:24.929Z,9.51
2018-11-07T05:14:52.374Z,9.50
2018-11-07T05:17:20.405Z,9.51
2018-11-07T05:19:47.869Z,9.52
2018-11-07T05:22:15.358Z,9.52
2018-11-07T05:24:43.028Z,9.53
2018-11-07T05:27:10.493Z,9.51
2018-11-07T05:29:37.895Z,9.53
2018-11-07T05:32:05.440Z,9.56
2018-11-07T05:34:32.793Z,9.55
2018-11-07T05:37:00.238Z,9.47
2018-11-07T05:39:27.858Z,9.46
2018-11-07T05:41:55.297Z,9.36
2018-11-07T05:44:22.761Z,9.39
2018-11-07T05:46:50.874Z,9.45
2018-11-07T05:49:18.335Z,9.39
2018-11-07T05:51:46.682Z,9.39
2018-11-07T05:54:14.204Z,9.46
2018-11-07T05:56:41.672Z,9.35
2018-11-07T05:59:09.893Z,9.28
2018-11-07T06:01:37.348Z,9.23
2018-11-07T06:04:04.760Z,9.24
2018-11-07T06:06:32.255Z,9.30
2018-11-07T06:08:59.649Z,9.30
2018-11-07T06:11:27.061Z,9.32
2018-11-07T06:13:54.518Z,9.44
2018-11-07T06:16:22.132Z,9.49
2018-11-07T06:18:49.503Z,9.50
2018-11-07T06:21:17.262Z,9.56
2018-11-07T06:23:44.759Z,9.58
2018-11-07T06:26:12.192Z,9.77
2018-11-07T06:28:39.631Z,9.79
2018-11-07T06:31:07.051Z,9.78
2018-11-07T06:33:34.477Z,9.74
2018-11-07T06:36:01.954Z,9.72
2018-11-07T06:38:29.383Z,9.76
2018-11-07T06:40:56.848Z,9.90
2018-11-07T06:43:24.343Z,10.01
2018-11-07T06:45:51.781Z,9.95
2018-11-07T06:48:19.201Z,9.98
2018-11-07T06:50:46.634Z,9.89
2018-11-07T06:53:14.137Z,9.83
2018-11-07T06:55:41.635Z,9.82
2018-11-07T06:58:09.139Z,9.83
2018-11-07T07:00:36.793Z,9.89
2018-11-07T07:03:04.230Z,9.90
2018-11-07T07:05:31.689Z,9.90
2018-11-07T07:07:59.135Z,9.95
2018-11-07T07:10:26.606Z,9.99
2018-11-07T07:12:54.166Z,9.93
2018-11-07T07:15:21.634Z,9.87
2018-11-07T07:17:49.144Z,9.83
2018-11-07T07:20:16.572Z,9.82
2018-11-07T07:22:44.020Z,9.78
2018-11-07T07:25:11.495Z,9.88
2018-11-07T07:27:38.920Z,9.95
2018-11-07T07:30:06.476Z,9.95
2018-11-07T07:32:33.831Z,9.99
2018-11-07T07:35:01.296Z,9.99
2018-11-07T07:37:28.713Z,9.91
2018-11-07T07:39:56.156Z,9.88
2018-11-07T07:42:23.667Z,9.76
2018-11-07T07:44:51.100Z,9.78
2018-11-07T07:47:19.535Z,9.81
2018-11-07T07:49:47.098Z,9.85
2018-11-07T07:52:14.549Z,9.91
2018-11-07T07:54:42.010Z,9.93
2018-11-07T07:57:09.486Z,10.04
2018-11-07T07:59:36.964Z,10.11
2018-11-07T08:02:04.440Z,10.12
2018-11-07T08:04:31.875Z,10.11
2018-11-07T08:06:59.393Z,10.17
2018-11-07T08:09:26.811Z,10.22
2018-11-07T08:11:54.284Z,10.22
2018-11-07T08:14:21.945Z,10.24
2018-11-07T08:16:49.474Z,10.38
2018-11-07T08:19:17.131Z,10.38
2018-11-07T08:21:44.561Z,10.39
2018-11-07T08:24:12.081Z,10.38
2018-11-07T08:26:39.515Z,10.41
2018-11-07T08:29:07.000Z,10.44
2018-11-07T08:31:34.404Z,10.43
2018-11-07T08:34:01.839Z,10.43
2018-11-07T08:36:29.377Z,10.46
2018-11-07T08:38:56.799Z,10.46
2018-11-07T08:41:24.390Z,10.45
2018-11-07T08:43:51.956Z,10.45
2018-11-07T08:46:19.508Z,10.50
2018-11-07T08:48:46.894Z,10.53
2018-11-07T08:51:14.422Z,10.53
2018-11-07T08:53:41.838Z,10.48
2018-11-07T08:56:09.255Z,10.50
2018-11-07T08:58:36.713Z,10.57
2018-11-07T09:01:04.299Z,10.67
2018-11-07T09:03:31.772Z,10.70
2018-11-07T09:05:59.374Z,10.74
2018-11-07T09:08:26.871Z,10.82
2018-11-07T09:10:54.354Z,10.80
2018-11-07T09:13:22.110Z,10.80
2018-11-07T09:15:49.745Z,10.80
2018-11-07T09:18:17.168Z,10.89
2018-11-07T09:20:44.764Z,10.92
2018-11-07T09:23:12.192Z,10.97
2018-11-07T09:25:39.871Z,10.94
2018-11-07T09:28:07.313Z,10.84
2018-11-07T09:30:34.854Z,10.75
2018-11-07T09:33:02.297Z,10.75
2018-11-07T09:35:29.708Z,10.85
2018-11-07T09:37:57.163Z,10.94
2018-11-07T09:40:24.671Z,10.98
2018-11-07T09:42:52.100Z,11.00
2018-11-07T09:45:19.630Z,11.05
2018-11-07T09:47:47.083Z,11.05
2018-11-07T09:50:14.504Z,10.99
2018-11-07T09:52:41.979Z,11.04
2018-11-07T09:55:09.408Z,11.16
2018-11-07T09:57:36.831Z,11.31
2018-11-07T10:00:04.271Z,11.41
2018-11-07T10:02:31.778Z,11.55
2018-11-07T10:04:59.228Z,11.69
2018-11-07T10:07:26.841Z,11.77
2018-11-07T10:09:54.310Z,11.79
2018-11-07T10:12:21.748Z,11.84
2018-11-07T10:14:49.181Z,11.88
2018-11-07T10:17:16.881Z,11.82
2018-11-07T10:19:44.385Z,11.73
2018-11-07T10:22:11.965Z,11.68
2018-11-07T10:24:39.523Z,11.54
2018-11-07T10:27:07.011Z,11.51
2018-11-07T10:29:34.639Z,11.56
2018-11-07T10:32:02.053Z,11.51
2018-11-07T10:34:29.515Z,11.53
2018-11-07T10:36:56.936Z,11.63
2018-11-07T10:39:24.379Z,11.66
2018-11-07T10:41:51.816Z,11.69
2018-11-07T10:44:19.324Z,11.67
2018-11-07T10:46:46.690Z,11.70
2018-11-07T10:49:14.213Z,11.73
2018-11-07T10:51:41.804Z,11.71
2018-11-07T10:54:09.302Z,11.76
2018-11-07T10:56:36.824Z,11.82
2018-11-07T10:59:04.942Z,11.93
2018-11-07T11:01:32.489Z,12.10
2018-11-07T11:03:59.936Z,12.22
2018-11-07T11:06:27.384Z,12.35
2018-11-07T11:08:55.573Z,12.51
2018-11-07T11:11:23.073Z,12.57
2018-11-07T11:13:50.525Z,12.59
2018-11-07T11:16:19.017Z,12.52
2018-11-07T11:18:46.600Z,12.55
2018-11-07T11:21:15.047Z,12.64
2018-11-07T11:23:42.533Z,12.66
2018-11-07T11:26:10.008Z,12.62
2018-11-07T11:28:37.744Z,12.67
2018-11-07T11:31:05.248Z,12.70
2018-11-07T11:33:32.761Z,12.70
2018-11-07T11:36:00.363Z,12.83
2018-11-07T11:38:27.950Z,12.85
2018-11-07T11:40:55.577Z,12.85
2018-11-07T11:43:23.010Z,12.88
2018-11-07T11:45:50.448Z,13.00
2018-11-07T11:48:17.950Z,13.21
2018-11-07T11:50:45.441Z,13.36
2018-11-07T11:53:12.897Z,13.48
2018-11-07T11:55:40.407Z,13.64
2018-11-07T11:58:07.883Z,13.86
2018-11-07T12:00:35.353Z,14.01
2018-11-07T12:03:02.864Z,13.94
2018-11-07T12:05:31.020Z,14.06
2018-11-07T12:07:58.430Z,14.41
2018-11-07T12:10:25.911Z,14.54
2018-11-07T12:12:53.449Z,14.46
2018-11-07T12:15:20.955Z,14.09
2018-11-07T12:17:48.339Z,13.82
2018-11-07T12:20:15.820Z,13.63
2018-11-07T12:22:43.283Z,13.67
2018-11-07T12:25:10.722Z,13.71
2018-11-07T12:27:38.160Z,13.73
2018-11-07T12:30:05.624Z,13.64
2018-11-07T12:32:33.077Z,13.38
2018-11-07T12:35:00.705Z,13.25
2018-11-07T12:37:28.718Z,13.22
2018-11-07T12:39:57.111Z,13.27
2018-11-07T12:42:24.579Z,13.18
2018-11-07T12:44:52.072Z,13.10
2018-11-07T12:47:20.487Z,13.05
2018-11-07T12:49:47.987Z,12.98
2018-11-07T12:52:15.425Z,12.81
2018-11-07T12:54:42.873Z,12.81
2018-11-07T12:57:10.403Z,12.80
2018-11-07T12:59:37.990Z,12.92
2018-11-07T13:02:06.352Z,12.94
2018-11-07T13:04:33.848Z,13.13
2018-11-07T13:07:01.403Z,13.17
2018-11-07T13:09:29.016Z,13.17
2018-11-07T13:11:56.630Z,13.24
2018-11-07T13:14:24.100Z,13.29
2018-11-07T13:16:51.812Z,13.30
2018-11-07T13:19:20.177Z,13.30
2018-11-07T13:21:48.446Z,13.49
2018-11-07T13:24:15.874Z,13.69
2018-11-07T13:26:43.486Z,13.78
2018-11-07T13:29:10.970Z,13.87
2018-11-07T13:31:38.494Z,13.81
2018-11-07T13:34:06.018Z,13.50
2018-11-07T13:36:33.559Z,13.45
2018-11-07T13:39:01.169Z,13.32
2018-11-07T13:41:28.403Z,13.15
2018-11-07T13:43:55.812Z,13.32
2018-11-07T13:46:24.718Z,13.60
2018-11-07T13:48:52.268Z,13.55
2018-11-07T13:51:19.780Z,13.43
2018-11-07T13:53:47.239Z,13.39
2018-11-07T13:56:14.698Z,13.38
2018-11-07T13:58:42.133Z,13.32
2018-11-07T14:01:09.595Z,13.29
2018-11-07T14:03:37.009Z,13.27
2018-11-07T14:06:04.847Z,13.25
2018-11-07T14:08:32.350Z,13.15
2018-11-07T14:10:59.929Z,13.11
2018-11-07T14:13:27.413Z,13.07
2018-11-07T14:15:55.054Z,13.00
2018-11-07T14:18:22.426Z,12.98
2018-11-07T14:20:49.970Z,12.78
2018-11-07T14:23:17.766Z,12.83
2018-11-07T14:25:45.177Z,12.86
2018-11-07T14:28:12.879Z,12.88
2018-11-07T14:30:40.214Z,12.92
2018-11-07T14:33:07.756Z,12.96
2018-11-07T14:35:35.256Z,12.96
2018-11-07T14:38:02.868Z,12.98
2018-11-07T14:40:30.337Z,12.93
2018-11-07T14:42:57.814Z,12.88
2018-11-07T14:45:25.243Z,12.79
2018-11-07T14:47:52.996Z,12.70
2018-11-07T14:50:20.484Z,12.71
2018-11-07T14:52:47.920Z,12.71
2018-11-07T14:55:15.541Z,12.72
2018-11-07T14:57:42.985Z,12.74
2018-11-07T15:00:10.514Z,12.72
2018-11-07T15:02:37.955Z,12.72
2018-11-07T15:05:05.368Z,12.66
2018-11-07T15:07:32.964Z,12.58
2018-11-07T15:10:00.371Z,12.53
2018-11-07T15:12:28.127Z,12.41
2018-11-07T15:14:55.764Z,12.39
2018-11-07T15:17:23.284Z,12.40
2018-11-07T15:19:50.622Z,12.41
2018-11-07T15:22:18.103Z,12.42
2018-11-07T15:24:45.571Z,12.38
2018-11-07T15:27:13.040Z,12.38
2018-11-07T15:29:40.472Z,12.42
2018-11-07T15:32:08.019Z,12.31
2018-11-07T15:34:35.478Z,12.15
2018-11-07T15:37:02.943Z,12.21
2018-11-07T15:39:30.389Z,12.15
2018-11-07T15:41:57.856Z,12.15
2018-11-07T15:44:25.296Z,12.10
2018-11-07T15:46:52.969Z,12.12
2018-11-07T15:49:20.419Z,12.18
2018-11-07T15:51:47.901Z,12.23
2018-11-07T15:54:15.339Z,12.23
2018-11-07T15:56:42.795Z,12.23
2018-11-07T15:59:10.344Z,12.17
2018-11-07T16:01:37.829Z,12.08
2018-11-07T16:04:05.359Z,12.02
2018-11-07T16:06:33.790Z,11.99
2018-11-07T16:09:01.229Z,11.92
2018-11-07T16:11:28.682Z,11.86
2018-11-07T16:13:56.114Z,11.80
2018-11-07T16:16:23.551Z,11.86
2018-11-07T16:18:50.976Z,11.93
2018-11-07T16:21:18.422Z,12.02
2018-11-07T16:23:46.597Z,12.03
2018-11-07T16:26:13.998Z,12.02
2018-11-07T16:28:41.454Z,11.99
2018-11-07T16:31:08.917Z,11.80
2018-11-07T16:33:36.492Z,11.62
2018-11-07T16:36:03.958Z,11.57
2018-11-07T16:38:31.396Z,11.71
2018-11-07T16:40:58.896Z,11.80
2018-11-07T16:43:26.796Z,11.87
2018-11-07T16:45:54.289Z,11.87
2018-11-07T16:48:21.849Z,11.88
2018-11-07T16:50:49.624Z,11.94
2018-11-07T16:53:17.156Z,11.96
2018-11-07T16:55:44.557Z,11.93
2018-11-07T16:58:12.293Z,11.93
2018-11-07T17:00:39.716Z,11.93
2018-11-07T17:03:07.230Z,11.96
2018-11-07T17:05:34.748Z,12.00
2018-11-07T17:08:02.321Z,11.97
2018-11-07T17:10:30.149Z,11.98
2018-11-07T17:12:57.568Z,12.04
2018-11-07T17:15:24.988Z,12.05
2018-11-07T17:17:52.461Z,12.03
2018-11-07T17:20:19.993Z,12.01
2018-11-07T17:22:49.105Z,12.00
2018-11-07T17:25:16.604Z,11.98
2018-11-07T17:27:44.170Z,11.97
2018-11-07T17:30:12.301Z,11.97
2018-11-07T17:32:40.143Z,11.97
2018-11-07T17:35:08.297Z,11.94
2018-11-07T17:37:35.763Z,11.87
2018-11-07T17:40:03.216Z,11.89
2018-11-07T17:42:30.724Z,11.88
2018-11-07T17:44:58.283Z,11.84
2018-11-07T17:47:26.563Z,11.83
2018-11-07T17:49:53.988Z,11.87
2018-11-07T17:52:21.444Z,11.91
2018-11-07T17:54:49.043Z,11.89
2018-11-07T17:57:16.495Z,11.76
2018-11-07T17:59:43.991Z,11.77
2018-11-07T18:02:11.647Z,11.83
2018-11-07T18:04:39.168Z,11.88
2018-11-07T18:07:06.802Z,11.92
2018-11-07T18:09:35.011Z,11.99
2018-11-07T18:12:02.711Z,12.04
2018-11-07T18:14:30.171Z,12.05
2018-11-07T18:16:57.589Z,12.08
2018-11-07T18:19:25.281Z,12.11
2018-11-07T18:21:52.696Z,12.13
2018-11-07T18:24:20.164Z,12.20
2018-11-07T18:26:47.629Z,12.17
2018-11-07T18:29:15.330Z,12.17
2018-11-07T18:31:42.778Z,12.13
2018-11-07T18:34:10.253Z,11.95
2018-11-07T18:36:37.734Z,11.95
2018-11-07T18:39:05.241Z,11.99
2018-11-07T18:41:32.759Z,12.02
2018-11-07T18:44:00.229Z,12.04
2018-11-07T18:46:27.780Z,12.05
2018-11-07T18:48:55.301Z,12.07
2018-11-07T18:51:22.765Z,12.00
2018-11-07T18:53:50.238Z,11.98
2018-11-07T18:56:17.958Z,11.99
2018-11-07T18:58:45.457Z,12.04
2018-11-07T19:01:12.967Z,12.06
2018-11-07T19:03:40.409Z,12.08
2018-11-07T19:06:08.042Z,12.07
2018-11-07T19:08:35.731Z,12.06
2018-11-07T19:11:03.197Z,12.11
2018-11-07T19:13:30.731Z,12.15
2018-11-07T19:15:58.245Z,12.12
2018-11-07T19:18:25.899Z,12.04
2018-11-07T19:20:53.411Z,12.04
2018-11-07T19:23:20.938Z,12.02
2018-11-07T19:25:49.204Z,11.95
2018-11-07T19:28:16.759Z,11.94
2018-11-07T19:30:44.282Z,11.95
2018-11-07T19:33:11.894Z,11.99
2018-11-07T19:35:39.311Z,11.98
2018-11-07T19:38:06.763Z,11.95
2018-11-07T19:40:34.223Z,11.96
2018-11-07T19:43:01.673Z,11.96
2018-11-07T19:45:29.103Z,11.96
2018-11-07T19:47:56.729Z,11.89
2018-11-07T19:50:24.154Z,11.91
2018-11-07T19:52:51.605Z,11.91
2018-11-07T19:55:19.274Z,11.89
2018-11-07T19:57:46.615Z,11.90
2018-11-07T20:00:14.686Z,11.90
2018-11-07T20:02:42.242Z,11.91
2018-11-07T20:05:09.802Z,11.92
2018-11-07T20:07:37.305Z,11.91
2018-11-07T20:10:04.882Z,11.88
2018-11-07T20:12:32.307Z,11.91
2018-11-07T20:14:59.968Z,11.96
2018-11-07T20:17:27.623Z,11.95
2018-11-07T20:19:55.540Z,11.98
2018-11-07T20:22:23.027Z,11.92
2018-11-07T20:24:50.486Z,11.93
2018-11-07T20:27:17.910Z,11.92
2018-11-07T20:29:45.327Z,11.94
2018-11-07T20:32:12.789Z,11.98
2018-11-07T20:34:40.501Z,11.97
2018-11-07T20:37:08.227Z,12.02
2018-11-07T20:39:35.667Z,12.02
2018-11-07T20:42:03.153Z,12.02
2018-11-07T20:44:30.615Z,11.89
2018-11-07T20:46:58.212Z,11.75
2018-11-07T20:49:25.748Z,11.66
2018-11-07T20:51:53.231Z,11.68
2018-11-07T20:54:20.773Z,11.74
2018-11-07T20:56:48.207Z,11.71
2018-11-07T20:59:15.841Z,11.53
2018-11-07T21:01:44.660Z,11.58
2018-11-07T21:04:12.175Z,11.61
2018-11-07T21:06:39.640Z,11.57
2018-11-07T21:09:07.119Z,11.58
2018-11-07T21:11:34.647Z,11.46
2018-11-07T21:14:02.181Z,11.34
2018-11-07T21:16:29.706Z,11.42
2018-11-07T21:18:57.155Z,11.56
2018-11-07T21:21:24.611Z,11.63
2018-11-07T21:23:52.082Z,11.67
2018-11-07T21:26:19.547Z,11.71
2018-11-07T21:28:47.031Z,11.73
2018-11-07T21:31:14.563Z,11.74
2018-11-07T21:33:41.980Z,11.75
2018-11-07T21:36:09.475Z,11.72
2018-11-07T21:38:36.950Z,11.68
2018-11-07T21:41:04.585Z,11.66
2018-11-07T21:43:32.186Z,11.69
2018-11-07T21:45:59.704Z,11.71
2018-11-07T21:48:28.236Z,11.71
2018-11-07T21:50:55.704Z,11.74
2018-11-07T21:53:23.591Z,11.77
2018-11-07T21:55:51.180Z,11.80
2018-11-07T21:58:18.647Z,11.81
2018-11-07T22:00:46.111Z,11.80
2018-11-07T22:03:13.547Z,11.80
2018-11-07T22:05:41.039Z,11.77
2018-11-07T22:08:08.506Z,11.75
2018-11-07T22:10:35.955Z,11.72
2018-11-07T22:13:03.519Z,11.64
2018-11-07T22:15:30.870Z,11.62
2018-11-07T22:17:58.315Z,11.62
2018-11-07T22:20:26.041Z,11.60
2018-11-07T22:22:53.538Z,11.58
2018-11-07T22:25:20.985Z,11.58
2018-11-07T22:27:48.523Z,11.60
2018-11-07T22:30:15.966Z,11.67
2018-11-07T22:32:43.543Z,11.67
2018-11-07T22:35:10.958Z,11.59
2018-11-07T22:37:38.436Z,11.59
2018-11-07T22:40:05.893Z,11.56
2018-11-07T22:42:33.306Z,11.49
2018-11-07T22:45:00.720Z,11.42
2018-11-07T22:47:28.876Z,11.35
2018-11-07T22:49:56.431Z,11.34
2018-11-07T22:52:23.852Z,11.38
2018-11-07T22:54:51.325Z,11.36
2018-11-07T22:57:19.191Z,11.37
2018-11-07T22:59:47.466Z,11.40
2018-11-07T23:02:14.853Z,11.47
2018-11-07T23:04:42.292Z,11.32
2018-11-07T23:07:09.735Z,11.31
2018-11-07T23:09:37.134Z,11.23
2018-11-07T23:12:04.611Z,11.16
2018-11-07T23:14:32.054Z,11.12
2018-11-07T23:16:59.498Z,11.18
2018-11-07T23:19:27.539Z,11.12
2018-11-07T23:21:54.966Z,11.09
2018-11-07T23:24:22.368Z,10.99
2018-11-07T23:26:49.821Z,10.91
2018-11-07T23:29:17.430Z,10.85
2018-11-07T23:31:44.891Z,10.78
2018-11-07T23:34:12.323Z,10.79
2018-11-07T23:36:39.856Z,10.86
2018-11-07T23:39:07.311Z,10.93
2018-11-07T23:41:34.708Z,10.99
2018-11-07T23:44:02.181Z,11.00
2018-11-07T23:46:29.583Z,11.08
2018-11-07T23:48:57.013Z,11.15
2018-11-07T23:51:24.441Z,11.19
2018-11-07T23:53:51.912Z,11.23
2018-11-07T23:56:19.368Z,11.26
2018-11-07T23:58:46.793Z,11.29
